Time;durP1;ratioP1;P1;durP2;ratioP2;P2;SDS_P1;SDS_P2;PMS_P1;PMS_P2;Temp;Humidity;BMP_temperature;BMP_pressure;BME280_temperature;BME280_humidity;BME280_pressure;Samples;Min_cycle;Max_cycle;Signal;HPM_P1;HPM_P2
2021/06/25 00:00:32;;;;;;;0.95;0.90;;;;;;;;;;4999740;28;20041;-61
2021/06/25 00:02:57;;;;;;;0.85;0.70;;;;;;;;;;5004794;28;20381;-61
2021/06/25 00:05:23;;;;;;;1.95;0.90;;;;;;;;;;5003162;28;20120;-61
2021/06/25 00:07:48;;;;;;;1.15;1.00;;;;;;;;;;5000921;28;20026;-62
2021/06/25 00:10:14;;;;;;;1.55;0.98;;;;;;;;;;5002426;28;20029;-61
2021/06/25 00:12:40;;;;;;;1.83;0.95;;;;;;;;;;5002369;28;20053;-62
2021/06/25 00:15:07;;;;;;;1.05;0.95;;;;;;;;;;5003608;28;20530;-61
2021/06/25 00:17:33;;;;;;;1.17;1.15;;;;;;;;;;5004589;28;20041;-61
2021/06/25 00:19:58;;;;;;;1.25;0.90;;;;;;;;;;5015664;28;20029;-61
2021/06/25 00:22:24;;;;;;;1.10;1.00;;;;;;;;;;5007265;28;20412;-61
2021/06/25 00:24:50;;;;;;;1.30;1.20;;;;;;;;;;5002548;28;20381;-61
2021/06/25 00:27:15;;;;;;;0.90;0.90;;;;;;;;;;5003587;28;20042;-61
2021/06/25 00:29:40;;;;;;;1.35;1.25;;;;;;;;;;5002895;28;20373;-61
2021/06/25 00:32:06;;;;;;;1.08;1.00;;;;;;;;;;4999249;28;20042;-61
2021/06/25 00:34:32;;;;;;;1.30;1.20;;;;;;;;;;5000792;28;20109;-61
2021/06/25 00:36:58;;;;;;;3.38;1.30;;;;;;;;;;5004365;28;20460;-61
2021/06/25 00:39:23;;;;;;;1.50;1.40;;;;;;;;;;4999947;28;20041;-61
2021/06/25 00:41:48;;;;;;;1.30;1.20;;;;;;;;;;5007084;28;20022;-61
2021/06/25 00:44:19;;;;;;;1.33;1.23;;;;;;;;;;5000759;28;20038;-61
2021/06/25 00:46:44;;;;;;;1.52;1.30;;;;;;;;;;4999437;28;20330;-61
2021/06/25 00:49:11;;;;;;;1.48;1.38;;;;;;;;;;4996812;28;20034;-61
2021/06/25 00:51:37;;;;;;;1.70;1.50;;;;;;;;;;5002323;28;20031;-61
2021/06/25 00:54:03;;;;;;;2.38;1.55;;;;;;;;;;5008723;28;20032;-61
2021/06/25 00:56:29;;;;;;;1.60;1.50;;;;;;;;;;5006491;28;20631;-61
2021/06/25 00:58:55;;;;;;;1.67;1.58;;;;;;;;;;5001723;28;20034;-61
2021/06/25 01:01:21;;;;;;;1.90;1.60;;;;;;;;;;5000810;28;20040;-61
2021/06/25 01:03:46;;;;;;;1.73;1.63;;;;;;;;;;5003172;28;20108;-61
2021/06/25 01:06:12;;;;;;;1.92;1.70;;;;;;;;;;4999975;28;20504;-61
2021/06/25 01:08:38;;;;;;;2.05;1.73;;;;;;;;;;5004483;28;20475;-60
2021/06/25 01:11:04;;;;;;;1.70;1.60;;;;;;;;;;5006626;28;20112;-61
2021/06/25 01:13:30;;;;;;;2.78;1.50;;;;;;;;;;5002792;28;20164;-61
2021/06/25 01:15:55;;;;;;;1.70;1.60;;;;;;;;;;5001424;28;20026;-61
2021/06/25 01:18:21;;;;;;;1.52;1.42;;;;;;;;;;5000113;28;20037;-61
2021/06/25 01:20:47;;;;;;;1.80;1.70;;;;;;;;;;5000823;28;20029;-61
2021/06/25 01:23:12;;;;;;;1.77;1.58;;;;;;;;;;4998606;28;20648;-61
2021/06/25 01:25:38;;;;;;;1.70;1.60;;;;;;;;;;4999094;28;20022;-61
2021/06/25 01:28:07;;;;;;;1.75;1.63;;;;;;;;;;5001127;28;20117;-61
2021/06/25 01:30:37;;;;;;;3.05;1.60;;;;;;;;;;5014906;28;20083;-61
2021/06/25 01:33:05;;;;;;;1.83;1.73;;;;;;;;;;5005293;28;20063;-61
2021/06/25 01:35:30;;;;;;;2.17;1.70;;;;;;;;;;5005721;28;20041;-61
2021/06/25 01:37:55;;;;;;;1.60;1.50;;;;;;;;;;4997937;28;20515;-61
2021/06/25 01:40:22;;;;;;;1.60;1.27;;;;;;;;;;4996173;28;20476;-61
2021/06/25 01:42:48;;;;;;;1.55;1.30;;;;;;;;;;4997706;28;20033;-61
2021/06/25 01:45:17;;;;;;;2.08;1.35;;;;;;;;;;4996151;28;20042;-61
2021/06/25 01:47:44;;;;;;;2.38;1.27;;;;;;;;;;5001580;28;20450;-61
2021/06/25 01:50:14;;;;;;;1.20;1.10;;;;;;;;;;4999799;28;20030;-61
2021/06/25 01:52:44;;;;;;;1.20;1.10;;;;;;;;;;5006366;28;20160;-61
2021/06/25 01:55:10;;;;;;;0.80;0.80;;;;;;;;;;4999080;28;20029;-61
2021/06/25 01:57:36;;;;;;;1.70;1.40;;;;;;;;;;4997700;28;20033;-61
2021/06/25 02:00:02;;;;;;;1.10;1.08;;;;;;;;;;5004430;28;20124;-61
2021/06/25 02:02:27;;;;;;;1.48;1.10;;;;;;;;;;4990522;28;20040;-61
2021/06/25 02:04:53;;;;;;;1.20;1.10;;;;;;;;;;5001631;28;20472;-62
2021/06/25 02:07:18;;;;;;;1.10;1.05;;;;;;;;;;4999924;28;20038;-62
2021/06/25 02:09:43;;;;;;;1.33;1.23;;;;;;;;;;5003733;28;20058;-62
2021/06/25 02:12:09;;;;;;;1.15;1.10;;;;;;;;;;4998838;28;20037;-61
2021/06/25 02:14:35;;;;;;;1.40;1.30;;;;;;;;;;5000854;28;20147;-61
2021/06/25 02:17:00;;;;;;;2.38;1.17;;;;;;;;;;5003565;28;20473;-61
2021/06/25 02:19:25;;;;;;;1.20;1.10;;;;;;;;;;4998546;28;20109;-61
2021/06/25 02:21:51;;;;;;;1.27;1.17;;;;;;;;;;5002591;28;20397;-61
2021/06/25 02:24:16;;;;;;;1.23;1.13;;;;;;;;;;5004518;28;20426;-62
2021/06/25 02:26:42;;;;;;;1.52;1.38;;;;;;;;;;5001610;28;20361;-61
2021/06/25 02:29:08;;;;;;;1.35;1.25;;;;;;;;;;5001161;28;20503;-61
2021/06/25 02:31:33;;;;;;;1.67;1.40;;;;;;;;;;4998167;28;20030;-61
2021/06/25 02:33:59;;;;;;;1.42;1.33;;;;;;;;;;5000095;28;20085;-61
2021/06/25 02:36:24;;;;;;;1.52;1.40;;;;;;;;;;4998115;28;20061;-61
2021/06/25 02:38:49;;;;;;;2.33;1.30;;;;;;;;;;4996047;28;20041;-61
2021/06/25 02:41:15;;;;;;;1.73;1.63;;;;;;;;;;4997182;28;20026;-61
2021/06/25 02:43:40;;;;;;;1.27;1.17;;;;;;;;;;5001908;28;20033;-61
2021/06/25 02:46:06;;;;;;;1.30;1.20;;;;;;;;;;4997888;28;20033;-61
2021/06/25 02:48:31;;;;;;;2.75;1.70;;;;;;;;;;5000254;28;20569;-61
2021/06/25 02:50:57;;;;;;;1.45;1.35;;;;;;;;;;5003155;28;20030;-61
2021/06/25 02:53:22;;;;;;;1.50;1.40;;;;;;;;;;5001567;28;20392;-61
2021/06/25 02:55:51;;;;;;;1.60;1.35;;;;;;;;;;5008922;28;20412;-61
2021/06/25 02:58:21;;;;;;;1.83;1.30;;;;;;;;;;5007930;28;20359;-62
2021/06/25 03:00:48;;;;;;;1.52;1.42;;;;;;;;;;4994762;28;20030;-61
2021/06/25 03:03:13;;;;;;;1.48;1.38;;;;;;;;;;5007958;28;20546;-61
2021/06/25 03:05:39;;;;;;;3.55;1.60;;;;;;;;;;5008313;28;22242;-61
2021/06/25 03:08:04;;;;;;;1.40;1.30;;;;;;;;;;5001655;28;20045;-61
2021/06/25 03:10:30;;;;;;;1.40;1.30;;;;;;;;;;5017854;28;20074;-61
2021/06/25 03:12:55;;;;;;;1.50;1.40;;;;;;;;;;5005754;28;20141;-61
2021/06/25 03:15:21;;;;;;;1.58;1.48;;;;;;;;;;5007329;28;20037;-61
2021/06/25 03:17:46;;;;;;;1.35;1.25;;;;;;;;;;5006399;28;20061;-61
2021/06/25 03:20:12;;;;;;;1.25;1.17;;;;;;;;;;4996522;28;20026;-61
2021/06/25 03:22:38;;;;;;;1.92;1.35;;;;;;;;;;5003877;28;20492;-61
2021/06/25 03:25:05;;;;;;;2.58;1.33;;;;;;;;;;4998051;28;20033;-61
2021/06/25 03:27:31;;;;;;;1.38;1.27;;;;;;;;;;5009284;28;20056;-61
2021/06/25 03:29:56;;;;;;;1.85;1.35;;;;;;;;;;5005483;28;20476;-61
2021/06/25 03:32:22;;;;;;;1.55;1.30;;;;;;;;;;5005579;28;20029;-61
2021/06/25 03:34:47;;;;;;;1.52;1.38;;;;;;;;;;5003641;28;20029;-61
2021/06/25 03:37:12;;;;;;;1.35;1.25;;;;;;;;;;5002512;28;20021;-61
2021/06/25 03:39:38;;;;;;;1.80;1.60;;;;;;;;;;5016041;28;20037;-61
2021/06/25 03:42:04;;;;;;;1.85;1.38;;;;;;;;;;5003104;28;20101;-60
2021/06/25 03:44:29;;;;;;;1.30;1.20;;;;;;;;;;5001612;28;20097;-60
2021/06/25 03:46:54;;;;;;;1.40;1.30;;;;;;;;;;5005461;28;20036;-60
2021/06/25 03:49:20;;;;;;;2.20;1.58;;;;;;;;;;5004788;28;20050;-61
2021/06/25 03:51:45;;;;;;;2.28;1.30;;;;;;;;;;4999336;28;20061;-60
2021/06/25 03:54:11;;;;;;;1.67;1.58;;;;;;;;;;5007481;28;20057;-60
2021/06/25 03:56:36;;;;;;;2.10;1.50;;;;;;;;;;5006567;28;20104;-60
2021/06/25 03:59:02;;;;;;;2.22;1.45;;;;;;;;;;4999007;28;20025;-60
2021/06/25 04:01:27;;;;;;;1.70;1.60;;;;;;;;;;5004698;28;20034;-60
2021/06/25 04:03:52;;;;;;;1.98;1.52;;;;;;;;;;5001708;28;20034;-61
2021/06/25 04:06:18;;;;;;;4.80;1.63;;;;;;;;;;5000903;28;20072;-61
2021/06/25 04:08:47;;;;;;;2.08;1.45;;;;;;;;;;5002252;28;20551;-61
2021/06/25 04:11:12;;;;;;;1.40;1.30;;;;;;;;;;5002658;28;20021;-60
2021/06/25 04:13:38;;;;;;;1.40;1.30;;;;;;;;;;5004644;28;20044;-60
2021/06/25 04:16:04;;;;;;;1.48;1.38;;;;;;;;;;5005217;28;20505;-60
2021/06/25 04:18:29;;;;;;;2.50;1.73;;;;;;;;;;4997208;28;20555;-60
2021/06/25 04:20:56;;;;;;;1.40;1.30;;;;;;;;;;5005308;28;20026;-59
2021/06/25 04:23:22;;;;;;;1.35;1.20;;;;;;;;;;5000221;28;20492;-60
2021/06/25 04:25:47;;;;;;;1.10;1.10;;;;;;;;;;5004189;28;20037;-60
2021/06/25 04:28:13;;;;;;;1.25;1.15;;;;;;;;;;5005581;28;20049;-59
2021/06/25 04:30:41;;;;;;;1.10;1.05;;;;;;;;;;5002504;28;20060;-60
2021/06/25 04:33:08;;;;;;;1.45;1.20;;;;;;;;;;4998614;28;20392;-60
2021/06/25 04:35:34;;;;;;;0.95;0.95;;;;;;;;;;5003186;28;20373;-61
2021/06/25 04:38:01;;;;;;;1.30;1.20;;;;;;;;;;5001973;28;20033;-60
2021/06/25 04:40:32;;;;;;;1.50;0.82;;;;;;;;;;4999725;28;20035;-60
2021/06/25 04:42:58;;;;;;;1.38;1.27;;;;;;;;;;5001912;28;20048;-60
2021/06/25 04:45:23;;;;;;;1.30;1.20;;;;;;;;;;5004114;28;20026;-60
2021/06/25 04:47:49;;;;;;;1.30;1.20;;;;;;;;;;4999938;28;20036;-61
2021/06/25 04:50:14;;;;;;;2.55;1.27;;;;;;;;;;5003065;28;20034;-61
2021/06/25 04:52:40;;;;;;;1.80;1.20;;;;;;;;;;5001155;28;20030;-61
2021/06/25 04:55:07;;;;;;;1.40;1.30;;;;;;;;;;5003162;28;20492;-61
2021/06/25 04:57:32;;;;;;;1.20;1.10;;;;;;;;;;5003527;28;20034;-61
2021/06/25 04:59:58;;;;;;;1.30;1.20;;;;;;;;;;5001350;28;20088;-61
2021/06/25 05:02:23;;;;;;;1.30;1.20;;;;;;;;;;4996795;28;20033;-61
2021/06/25 05:04:49;;;;;;;1.25;1.23;;;;;;;;;;4999534;28;20492;-61
2021/06/25 05:07:14;;;;;;;1.40;1.30;;;;;;;;;;4999339;28;20036;-61
2021/06/25 05:09:40;;;;;;;1.10;1.10;;;;;;;;;;5005447;28;20061;-60
2021/06/25 05:12:06;;;;;;;1.05;0.95;;;;;;;;;;4999878;28;20018;-60
2021/06/25 05:14:31;;;;;;;5.75;1.23;;;;;;;;;;5002415;28;20042;-61
2021/06/25 05:16:56;;;;;;;1.30;1.20;;;;;;;;;;4999826;28;20060;-59
2021/06/25 05:19:22;;;;;;;1.00;1.00;;;;;;;;;;5001619;28;20036;-60
2021/06/25 05:21:47;;;;;;;2.20;1.00;;;;;;;;;;4996125;28;20045;-59
2021/06/25 05:24:13;;;;;;;1.10;1.10;;;;;;;;;;4998920;28;20053;-59
2021/06/25 05:26:38;;;;;;;2.47;1.20;;;;;;;;;;5003268;28;20022;-59
2021/06/25 05:29:03;;;;;;;1.17;1.10;;;;;;;;;;5001602;28;20387;-59
2021/06/25 05:31:29;;;;;;;1.48;1.20;;;;;;;;;;5003868;28;20021;-59
2021/06/25 05:33:56;;;;;;;1.13;1.02;;;;;;;;;;5005363;28;20036;-59
2021/06/25 05:36:22;;;;;;;1.13;1.10;;;;;;;;;;4999934;28;20485;-60
2021/06/25 05:38:47;;;;;;;1.30;1.05;;;;;;;;;;5000289;28;20037;-59
2021/06/25 05:41:14;;;;;;;0.88;0.88;;;;;;;;;;5003721;28;20116;-60
2021/06/25 05:43:41;;;;;;;1.50;1.00;;;;;;;;;;5003604;28;20092;-60
2021/06/25 05:46:07;;;;;;;1.13;0.90;;;;;;;;;;5000996;28;20057;-60
2021/06/25 05:48:32;;;;;;;0.80;0.80;;;;;;;;;;5000632;28;20065;-60
2021/06/25 05:50:58;;;;;;;0.90;0.90;;;;;;;;;;5000114;28;20039;-60
2021/06/25 05:53:25;;;;;;;1.00;0.90;;;;;;;;;;4999813;28;20098;-61
2021/06/25 05:55:50;;;;;;;1.23;1.13;;;;;;;;;;5017909;28;20040;-61
2021/06/25 05:58:16;;;;;;;1.10;1.10;;;;;;;;;;4996788;28;20116;-61
2021/06/25 06:00:42;;;;;;;0.90;0.90;;;;;;;;;;4998862;28;20034;-61
2021/06/25 06:03:07;;;;;;;0.90;0.90;;;;;;;;;;4998464;28;20026;-60
2021/06/25 06:05:33;;;;;;;1.10;1.10;;;;;;;;;;4998940;28;20511;-61
2021/06/25 06:08:01;;;;;;;1.40;1.23;;;;;;;;;;5004467;28;20045;-61
2021/06/25 06:10:27;;;;;;;1.00;1.00;;;;;;;;;;5001799;28;20032;-61
2021/06/25 06:12:52;;;;;;;0.65;0.65;;;;;;;;;;5004087;28;20022;-61
2021/06/25 06:15:18;;;;;;;1.10;0.80;;;;;;;;;;4994084;28;20033;-61
2021/06/25 06:17:47;;;;;;;0.88;0.88;;;;;;;;;;5005000;28;20061;-61
2021/06/25 06:20:23;;;;;;;1.73;1.40;;;;;;;;;;4998426;28;20027;-61
2021/06/25 06:31:11;;;;;;;1.60;1.50;;;;;;;;;;5003361;28;20087;-59
2021/06/25 06:36:26;;;;;;;1.20;1.20;;;;;;;;;;5000526;28;20029;-60
2021/06/25 06:38:52;;;;;;;1.00;1.00;;;;;;;;;;5002025;28;20092;-60
2021/06/25 06:41:19;;;;;;;1.40;0.80;;;;;;;;;;5006035;28;20041;-61
2021/06/25 06:43:50;;;;;;;0.80;0.80;;;;;;;;;;5007250;28;20110;-61
2021/06/25 06:46:16;;;;;;;1.50;1.40;;;;;;;;;;4997500;28;20560;-60
2021/06/25 06:48:43;;;;;;;1.33;1.00;;;;;;;;;;5004457;28;20108;-63
2021/06/25 06:51:11;;;;;;;1.23;1.13;;;;;;;;;;5004821;28;20566;-62
2021/06/25 06:53:36;;;;;;;1.80;1.70;;;;;;;;;;5000537;28;20050;-62
2021/06/25 06:56:02;;;;;;;1.27;1.00;;;;;;;;;;5001521;28;20030;-62
2021/06/25 06:58:28;;;;;;;1.10;1.00;;;;;;;;;;5002167;28;20061;-62
2021/06/25 07:00:54;;;;;;;1.08;1.08;;;;;;;;;;5001294;28;20403;-61
2021/06/25 07:03:19;;;;;;;1.17;1.08;;;;;;;;;;5002987;28;20574;-62
2021/06/25 07:05:45;;;;;;;1.20;1.10;;;;;;;;;;4998167;28;20121;-63
2021/06/25 07:08:10;;;;;;;1.10;1.10;;;;;;;;;;5022061;28;20120;-60
2021/06/25 07:10:36;;;;;;;1.60;1.15;;;;;;;;;;5003177;28;20059;-61
2021/06/25 07:13:01;;;;;;;1.00;1.00;;;;;;;;;;4997535;28;20397;-61
2021/06/25 07:15:27;;;;;;;1.23;1.13;;;;;;;;;;5000172;28;20049;-61
2021/06/25 07:17:52;;;;;;;1.00;1.00;;;;;;;;;;5002647;28;20022;-62
2021/06/25 07:20:18;;;;;;;1.30;1.20;;;;;;;;;;5001191;28;20111;-62
2021/06/25 07:22:43;;;;;;;2.08;1.50;;;;;;;;;;4999152;28;20030;-63
2021/06/25 07:25:09;;;;;;;2.67;2.15;;;;;;;;;;5018513;28;20115;-62
2021/06/25 07:27:36;;;;;;;1.20;1.10;;;;;;;;;;5005152;28;20030;-63
2021/06/25 07:30:05;;;;;;;0.98;0.93;;;;;;;;;;4997323;28;20030;-63
2021/06/25 07:32:30;;;;;;;3.20;1.30;;;;;;;;;;5006189;28;20116;-62
2021/06/25 07:34:56;;;;;;;1.30;1.20;;;;;;;;;;4997663;28;20137;-62
2021/06/25 07:37:24;;;;;;;1.88;1.77;;;;;;;;;;4995888;28;20846;-61
2021/06/25 07:39:50;;;;;;;1.30;1.20;;;;;;;;;;5000004;28;20564;-62
2021/06/25 07:42:16;;;;;;;2.80;1.30;;;;;;;;;;5002470;28;20105;-62
2021/06/25 07:44:41;;;;;;;1.40;1.30;;;;;;;;;;5003663;28;20263;-61
2021/06/25 07:47:07;;;;;;;3.20;1.85;;;;;;;;;;5002843;28;20029;-63
2021/06/25 07:49:32;;;;;;;2.45;2.25;;;;;;;;;;4998028;28;20030;-61
2021/06/25 07:51:58;;;;;;;1.52;1.35;;;;;;;;;;5005923;28;20535;-62
2021/06/25 07:54:24;;;;;;;1.27;1.20;;;;;;;;;;5001236;28;20033;-62
2021/06/25 07:56:49;;;;;;;1.45;1.20;;;;;;;;;;5001788;28;20041;-62
2021/06/25 07:59:15;;;;;;;2.28;1.30;;;;;;;;;;4999468;28;20030;-60
2021/06/25 08:01:40;;;;;;;1.48;1.38;;;;;;;;;;5003829;28;20030;-63
2021/06/25 08:04:06;;;;;;;1.60;1.50;;;;;;;;;;5007740;28;20545;-62
2021/06/25 08:06:31;;;;;;;1.60;1.50;;;;;;;;;;5016108;28;20034;-62
2021/06/25 08:08:57;;;;;;;1.40;1.30;;;;;;;;;;5000468;28;20042;-62
2021/06/25 08:11:22;;;;;;;2.03;1.40;;;;;;;;;;5005812;28;20061;-63
2021/06/25 08:13:48;;;;;;;1.80;1.70;;;;;;;;;;5004254;28;20095;-62
2021/06/25 08:16:14;;;;;;;1.50;1.40;;;;;;;;;;5001527;28;20104;-61
2021/06/25 08:18:39;;;;;;;1.90;1.80;;;;;;;;;;4997611;28;20030;-62
2021/06/25 08:21:05;;;;;;;1.98;1.77;;;;;;;;;;4999461;28;20522;-62
2021/06/25 08:23:30;;;;;;;1.70;1.60;;;;;;;;;;5003579;28;20587;-61
2021/06/25 08:25:55;;;;;;;1.70;1.60;;;;;;;;;;4996009;28;20033;-62
2021/06/25 08:28:21;;;;;;;2.10;1.90;;;;;;;;;;5003322;28;20021;-61
2021/06/25 08:30:46;;;;;;;1.90;1.80;;;;;;;;;;5004137;28;20026;-60
2021/06/25 08:33:12;;;;;;;1.88;1.77;;;;;;;;;;5000624;28;20022;-61
2021/06/25 08:35:37;;;;;;;1.98;1.88;;;;;;;;;;5007076;28;20026;-61
2021/06/25 08:38:03;;;;;;;2.50;1.80;;;;;;;;;;4999789;28;20065;-60
2021/06/25 08:40:28;;;;;;;2.90;1.88;;;;;;;;;;4997816;28;20080;-61
2021/06/25 08:42:54;;;;;;;2.20;2.00;;;;;;;;;;5003908;28;20064;-62
2021/06/25 08:45:19;;;;;;;3.15;2.83;;;;;;;;;;5007713;28;20076;-63
2021/06/25 08:47:50;;;;;;;2.85;2.55;;;;;;;;;;4998983;28;20041;-62
2021/06/25 08:50:19;;;;;;;2.17;1.98;;;;;;;;;;5004387;28;20029;-62
2021/06/25 08:52:46;;;;;;;2.70;2.00;;;;;;;;;;5001598;28;20377;-62
2021/06/25 08:55:13;;;;;;;2.08;1.98;;;;;;;;;;5002755;28;20269;-62
2021/06/25 08:57:38;;;;;;;1.80;1.70;;;;;;;;;;4998221;28;20026;-61
2021/06/25 09:00:06;;;;;;;2.13;1.80;;;;;;;;;;5004897;28;20404;-60
2021/06/25 09:02:34;;;;;;;2.35;2.00;;;;;;;;;;5001895;28;20041;-61
2021/06/25 09:05:00;;;;;;;2.35;1.98;;;;;;;;;;4998446;28;20030;-61
2021/06/25 09:07:43;;;;;;;2.42;2.00;;;;;;;;;;4999132;28;20053;-62
2021/06/25 09:10:11;;;;;;;2.63;2.03;;;;;;;;;;5001448;28;20029;-61
2021/06/25 09:12:37;;;;;;;2.05;1.90;;;;;;;;;;5005696;28;20141;-61
2021/06/25 09:15:13;;;;;;;1.77;1.67;;;;;;;;;;5003397;28;20053;-61
2021/06/25 09:18:14;;;;;;;1.92;1.83;;;;;;;;;;5003764;28;20096;-62
2021/06/25 09:20:47;;;;;;;1.70;1.60;;;;;;;;;;4980983;28;20026;-61
2021/06/25 09:23:34;;;;;;;2.22;1.92;;;;;;;;;;4995922;28;20046;-63
2021/06/25 09:26:09;;;;;;;2.20;2.00;;;;;;;;;;4997844;28;20030;-62
2021/06/25 09:28:39;;;;;;;2.00;1.90;;;;;;;;;;4999580;28;20112;-61
2021/06/25 09:31:16;;;;;;;2.00;1.90;;;;;;;;;;4997943;28;20060;-61
2021/06/25 09:33:53;;;;;;;2.00;1.90;;;;;;;;;;4999687;28;20090;-61
2021/06/25 09:36:30;;;;;;;2.00;1.90;;;;;;;;;;4995058;28;20038;-61
2021/06/25 09:39:05;;;;;;;2.50;2.30;;;;;;;;;;4999179;28;20021;-61
2021/06/25 09:41:31;;;;;;;2.35;2.15;;;;;;;;;;4996905;28;20026;-61
2021/06/25 09:44:11;;;;;;;2.50;2.30;;;;;;;;;;5002056;28;20025;-61
2021/06/25 09:46:41;;;;;;;2.20;2.00;;;;;;;;;;5001063;28;20036;-61
2021/06/25 09:49:14;;;;;;;2.33;2.13;;;;;;;;;;4996350;28;20034;-61
2021/06/25 09:51:59;;;;;;;2.47;2.08;;;;;;;;;;5001320;28;20023;-61
2021/06/25 09:54:26;;;;;;;2.13;1.92;;;;;;;;;;5002086;28;20034;-61
2021/06/25 09:59:32;;;;;;;3.58;3.28;;;;;;;;;;5000564;28;20022;-62
2021/06/25 10:02:16;;;;;;;3.47;3.10;;;;;;;;;;4995659;28;20036;-61
2021/06/25 10:04:41;;;;;;;2.35;2.13;;;;;;;;;;5004146;28;20507;-61
2021/06/25 10:07:21;;;;;;;2.40;2.20;;;;;;;;;;4997151;28;20034;-61
2021/06/25 10:09:51;;;;;;;2.30;2.10;;;;;;;;;;5003963;28;20036;-62
2021/06/25 10:12:17;;;;;;;;;;;;;;;;;;5001315;28;20026;-62
2021/06/25 10:14:43;;;;;;;3.28;2.03;;;;;;;;;;5001894;28;20323;-62
2021/06/25 10:17:09;;;;;;;2.28;2.08;;;;;;;;;;5000129;28;20034;-62
2021/06/25 10:19:37;;;;;;;2.00;1.90;;;;;;;;;;4999990;28;20026;-61
2021/06/25 10:22:06;;;;;;;3.38;2.55;;;;;;;;;;5003898;28;20081;-62
2021/06/25 10:24:35;;;;;;;1.92;1.83;;;;;;;;;;5001408;28;20053;-61
2021/06/25 10:27:03;;;;;;;2.33;1.83;;;;;;;;;;5001543;28;20038;-61
2021/06/25 10:29:31;;;;;;;2.40;2.20;;;;;;;;;;4999985;28;20026;-61
2021/06/25 10:31:56;;;;;;;2.10;2.00;;;;;;;;;;5014164;28;20076;-62
2021/06/25 10:34:22;;;;;;;2.22;2.03;;;;;;;;;;4999684;28;20041;-61
2021/06/25 10:36:51;;;;;;;2.60;2.40;;;;;;;;;;5004620;28;20056;-61
2021/06/25 10:39:16;;;;;;;2.70;2.40;;;;;;;;;;4998821;28;20108;-60
2021/06/25 10:41:56;;;;;;;2.40;2.17;;;;;;;;;;4995716;28;20340;-60
2021/06/25 10:44:44;;;;;;;2.13;1.92;;;;;;;;;;5002173;28;20213;-61
2021/06/25 10:47:16;;;;;;;2.22;2.03;;;;;;;;;;5001961;28;20121;-60
2021/06/25 10:50:00;;;;;;;2.20;2.00;;;;;;;;;;4990603;28;20057;-60
2021/06/25 10:52:26;;;;;;;2.42;2.17;;;;;;;;;;4992615;28;20702;-61
2021/06/25 10:55:11;;;;;;;3.15;2.60;;;;;;;;;;5001010;28;20156;-61
2021/06/25 10:57:49;;;;;;;2.15;1.95;;;;;;;;;;5004301;28;20040;-61
2021/06/25 11:00:24;;;;;;;2.38;2.17;;;;;;;;;;5000665;28;20093;-60
2021/06/25 11:02:50;;;;;;;2.50;2.30;;;;;;;;;;5000223;28;20045;-59
2021/06/25 11:05:21;;;;;;;2.53;2.33;;;;;;;;;;5002092;28;20120;-60
2021/06/25 11:07:50;;;;;;;3.85;2.05;;;;;;;;;;4993704;28;20041;-60
2021/06/25 11:10:35;;;;;;;2.53;2.33;;;;;;;;;;5008572;28;20547;-60
2021/06/25 11:13:12;;;;;;;2.53;2.33;;;;;;;;;;5000308;28;20085;-60
2021/06/25 11:15:42;;;;;;;3.30;3.00;;;;;;;;;;5002577;28;20123;-60
2021/06/25 11:18:15;;;;;;;3.65;2.67;;;;;;;;;;4997397;28;20061;-60
2021/06/25 11:20:53;;;;;;;3.78;2.50;;;;;;;;;;5003122;28;20029;-60
2021/06/25 11:23:26;;;;;;;4.53;2.97;;;;;;;;;;5003193;28;20056;-60
2021/06/25 11:25:55;;;;;;;2.78;2.58;;;;;;;;;;5010216;28;20135;-61
2021/06/25 11:28:33;;;;;;;3.08;2.78;;;;;;;;;;5004448;28;20575;-59
2021/06/25 11:31:06;;;;;;;2.78;2.58;;;;;;;;;;5001148;28;20052;-61
2021/06/25 11:33:36;;;;;;;3.83;2.65;;;;;;;;;;5001201;28;20026;-62
2021/06/25 11:36:16;;;;;;;3.03;2.83;;;;;;;;;;5005818;28;20567;-63
2021/06/25 11:39:05;;;;;;;3.22;2.90;;;;;;;;;;5006103;28;20033;-61
2021/06/25 11:41:36;;;;;;;3.67;2.72;;;;;;;;;;4998568;28;20032;-62
2021/06/25 11:44:31;;;;;;;3.20;2.78;;;;;;;;;;5022175;28;20504;-62
2021/06/25 11:47:14;;;;;;;3.50;3.00;;;;;;;;;;4995989;28;20085;-61
2021/06/25 11:50:02;;;;;;;3.00;2.80;;;;;;;;;;4998905;28;20041;-63
2021/06/25 11:52:29;;;;;;;3.67;2.50;;;;;;;;;;4999567;28;20022;-60
2021/06/25 11:55:06;;;;;;;3.25;2.95;;;;;;;;;;5007111;28;20066;-63
2021/06/25 11:57:34;;;;;;;2.67;2.47;;;;;;;;;;5002989;28;20049;-64
2021/06/25 12:00:08;;;;;;;2.80;2.60;;;;;;;;;;4995787;28;20026;-63
2021/06/25 12:02:39;;;;;;;2.88;2.65;;;;;;;;;;5004754;28;20455;-62
2021/06/25 12:05:05;;;;;;;2.90;2.60;;;;;;;;;;5009864;28;20033;-61
2021/06/25 12:07:31;;;;;;;3.30;2.72;;;;;;;;;;4998977;28;20022;-64
2021/06/25 12:09:57;;;;;;;3.17;2.88;;;;;;;;;;5000453;28;20511;-63
2021/06/25 12:12:23;;;;;;;3.53;2.92;;;;;;;;;;5005389;28;20026;-62
2021/06/25 12:15:04;;;;;;;5.47;3.10;;;;;;;;;;4995974;28;20038;-63
2021/06/25 12:17:48;;;;;;;3.67;3.10;;;;;;;;;;4996310;28;20173;-63
2021/06/25 12:20:22;;;;;;;3.85;3.20;;;;;;;;;;5000092;28;20307;-62
2021/06/25 12:22:58;;;;;;;3.40;3.10;;;;;;;;;;5000613;28;20030;-63
2021/06/25 12:25:42;;;;;;;3.70;3.05;;;;;;;;;;4999266;28;20026;-61
2021/06/25 12:28:19;;;;;;;4.25;3.50;;;;;;;;;;5005742;28;20057;-63
2021/06/25 12:30:49;;;;;;;3.75;3.13;;;;;;;;;;5016341;28;20088;-64
2021/06/25 12:33:21;;;;;;;3.83;3.53;;;;;;;;;;5007928;28;20041;-63
2021/06/25 12:35:49;;;;;;;4.40;3.65;;;;;;;;;;5004847;28;20065;-63
2021/06/25 12:38:17;;;;;;;4.38;3.88;;;;;;;;;;4999477;28;20038;-63
2021/06/25 12:40:57;;;;;;;3.47;2.95;;;;;;;;;;4997603;28;20145;-61
2021/06/25 12:43:31;;;;;;;;;;;;;;;;;;5000213;28;20088;-63
2021/06/25 12:46:05;;;;;;;4.97;3.10;;;;;;;;;;5004246;28;19936;-63
2021/06/25 12:48:39;;;;;;;2.88;2.58;;;;;;;;;;4998533;28;20101;-63
2021/06/25 12:51:11;;;;;;;2.90;2.45;;;;;;;;;;5002693;28;20033;-61
2021/06/25 12:53:39;;;;;;;3.00;2.70;;;;;;;;;;5003953;28;20506;-62
2021/06/25 12:56:16;;;;;;;3.65;2.45;;;;;;;;;;5003448;28;20405;-61
2021/06/25 12:58:43;;;;;;;2.70;2.50;;;;;;;;;;5000391;28;20037;-61
2021/06/25 13:01:10;;;;;;;2.55;2.35;;;;;;;;;;5003490;28;20029;-61
2021/06/25 13:03:36;;;;;;;3.60;2.58;;;;;;;;;;5002633;28;20117;-63
2021/06/25 13:06:31;;;;;;;2.72;2.53;;;;;;;;;;5005189;28;20034;-63
2021/06/25 13:08:59;;;;;;;3.25;2.90;;;;;;;;;;4996705;28;20034;-63
2021/06/25 13:11:37;;;;;;;4.35;3.30;;;;;;;;;;5005945;28;20030;-64
2021/06/25 13:14:03;;;;;;;2.67;2.47;;;;;;;;;;4998181;28;20455;-61
2021/06/25 13:16:29;;;;;;;3.50;3.20;;;;;;;;;;5001621;28;20026;-62
2021/06/25 13:18:58;;;;;;;3.30;2.95;;;;;;;;;;4997209;28;20030;-60
2021/06/25 13:21:26;;;;;;;3.17;2.83;;;;;;;;;;5002594;28;20053;-62
2021/06/25 13:24:08;;;;;;;3.13;2.83;;;;;;;;;;4998269;28;20025;-62
2021/06/25 13:26:42;;;;;;;3.58;2.90;;;;;;;;;;4978750;28;20026;-61
2021/06/25 13:29:08;;;;;;;6.25;5.20;;;;;;;;;;5006532;28;20160;-62
2021/06/25 13:31:55;;;;;;;4.03;3.20;;;;;;;;;;4998802;28;20113;-61
2021/06/25 13:34:22;;;;;;;3.47;3.17;;;;;;;;;;4994298;28;20113;-62
2021/06/25 13:37:02;;;;;;;3.97;3.55;;;;;;;;;;5003069;28;20037;-62
2021/06/25 13:39:34;;;;;;;3.35;2.90;;;;;;;;;;5001289;28;20037;-60
2021/06/25 13:42:14;;;;;;;2.97;2.70;;;;;;;;;;4996073;28;20031;-62
2021/06/25 13:44:39;;;;;;;;;;;;;;;;;;5006425;28;20060;-62
2021/06/25 13:47:06;;;;;;;3.97;3.58;;;;;;;;;;5007501;28;19917;-61
2021/06/25 13:49:40;;;;;;;3.53;3.22;;;;;;;;;;4997300;28;20113;-64
2021/06/25 13:52:24;;;;;;;3.45;3.03;;;;;;;;;;5004842;28;20454;-63
2021/06/25 13:55:23;;;;;;;3.45;2.90;;;;;;;;;;5004795;28;20030;-62
2021/06/25 13:57:56;;;;;;;3.35;2.83;;;;;;;;;;5008071;28;20013;-62
2021/06/25 14:00:35;;;;;;;5.97;3.03;;;;;;;;;;4998862;28;20291;-62
2021/06/25 14:03:07;;;;;;;6.70;3.35;;;;;;;;;;5008454;28;20053;-62
2021/06/25 14:05:34;;;;;;;3.67;3.33;;;;;;;;;;4998687;28;20030;-62
2021/06/25 14:08:02;;;;;;;4.43;3.70;;;;;;;;;;4992706;28;20510;-62
2021/06/25 14:10:30;;;;;;;5.00;3.20;;;;;;;;;;5002994;28;20488;-62
2021/06/25 14:12:57;;;;;;;3.30;3.00;;;;;;;;;;4998169;28;20065;-61
2021/06/25 14:15:27;;;;;;;4.05;3.30;;;;;;;;;;5000986;28;20038;-62
2021/06/25 14:17:58;;;;;;;3.85;3.45;;;;;;;;;;5003753;28;20374;-61
2021/06/25 14:20:24;;;;;;;4.45;3.67;;;;;;;;;;5001094;28;20496;-62
2021/06/25 14:22:50;;;;;;;4.03;3.60;;;;;;;;;;5002337;28;20129;-60
2021/06/25 14:25:15;;;;;;;4.40;3.70;;;;;;;;;;4998938;28;20125;-62
2021/06/25 14:27:42;;;;;;;3.80;3.33;;;;;;;;;;5005083;28;20022;-60
2021/06/25 14:30:08;;;;;;;4.18;3.40;;;;;;;;;;5002830;28;20496;-62
2021/06/25 14:32:34;;;;;;;4.38;3.40;;;;;;;;;;5007099;28;20060;-60
2021/06/25 14:34:59;;;;;;;3.85;3.45;;;;;;;;;;5005842;28;20049;-61
2021/06/25 14:37:25;;;;;;;3.60;3.30;;;;;;;;;;4996818;28;20053;-61
2021/06/25 14:39:52;;;;;;;3.83;3.50;;;;;;;;;;4996981;28;20030;-61
2021/06/25 14:42:18;;;;;;;4.07;3.67;;;;;;;;;;4995662;28;20026;-62
2021/06/25 14:44:44;;;;;;;4.82;3.47;;;;;;;;;;5001299;28;20026;-61
2021/06/25 14:47:09;;;;;;;4.25;3.40;;;;;;;;;;5008706;28;20030;-63
2021/06/25 14:49:35;;;;;;;4.03;3.63;;;;;;;;;;5000526;28;20034;-63
2021/06/25 14:52:00;;;;;;;7.15;4.00;;;;;;;;;;5006855;28;20018;-63
2021/06/25 14:54:26;;;;;;;5.05;3.78;;;;;;;;;;5001985;28;20056;-62
2021/06/25 14:56:51;;;;;;;4.90;4.40;;;;;;;;;;5000477;28;20298;-63
2021/06/25 14:59:16;;;;;;;3.67;3.38;;;;;;;;;;5000799;28;20054;-62
2021/06/25 15:01:42;;;;;;;4.85;4.20;;;;;;;;;;5002969;28;20061;-62
2021/06/25 15:04:07;;;;;;;5.43;3.95;;;;;;;;;;5005269;28;20540;-62